sensor_id;sensor_type;location;lat;lon;timestamp;pressure;altitude;pressure_sealevel;temperature;humidity
58467;BME280;44255;49.244;7.726;2023-02-11T04:31:07;100228.06;;;0.98;45.93
58467;BME280;44255;49.244;7.726;2023-02-11T04:33:32;100236.03;;;1.10;45.34
58467;BME280;44255;49.244;7.726;2023-02-11T04:35:57;100227.19;;;1.10;45.15
58467;BME280;44255;49.244;7.726;2023-02-11T04:38:22;100223.66;;;1.08;45.10
58467;BME280;44255;49.244;7.726;2023-02-11T04:40:48;100215.69;;;0.94;45.58
58467;BME280;44255;49.244;7.726;2023-02-11T04:43:13;100230.75;;;0.93;45.41
58467;BME280;44255;49.244;7.726;2023-02-11T04:45:38;100222.78;;;0.90;45.58
58467;BME280;44255;49.244;7.726;2023-02-11T04:48:04;100217.44;;;0.81;45.90
58467;BME280;44255;49.244;7.726;2023-02-11T04:50:29;100216.56;;;0.82;46.09
58467;BME280;44255;49.244;7.726;2023-02-11T04:52:55;100209.50;;;0.92;46.13
58467;BME280;44255;49.244;7.726;2023-02-11T04:55:20;100204.19;;;0.75;45.84
58467;BME280;44255;49.244;7.726;2023-02-11T04:57:45;100198.00;;;0.90;45.51
58467;BME280;44255;49.244;7.726;2023-02-11T05:00:11;100202.41;;;0.95;45.37
58467;BME280;44255;49.244;7.726;2023-02-11T05:02:36;100190.03;;;0.94;45.62
58467;BME280;44255;49.244;7.726;2023-02-11T05:05:01;100192.69;;;0.90;45.87
58467;BME280;44255;49.244;7.726;2023-02-11T05:07:27;100174.97;;;1.00;46.08
58467;BME280;44255;49.244;7.726;2023-02-11T05:09:52;100164.34;;;0.96;45.84
58467;BME280;44255;49.244;7.726;2023-02-11T05:12:17;100160.84;;;0.87;46.10
58467;BME280;44255;49.244;7.726;2023-02-11T05:14:42;100165.25;;;0.80;46.10
58467;BME280;44255;49.244;7.726;2023-02-11T05:17:08;100155.50;;;1.02;45.36
58467;BME280;44255;49.244;7.726;2023-02-11T05:19:33;100163.47;;;0.90;45.90
58467;BME280;44255;49.244;7.726;2023-02-11T05:21:58;100166.16;;;0.84;45.91
58467;BME280;44255;49.244;7.726;2023-02-11T05:24:23;100159.03;;;0.92;45.96
58467;BME280;44255;49.244;7.726;2023-02-11T05:26:49;100164.34;;;0.53;46.09
58467;BME280;44255;49.244;7.726;2023-02-11T05:29:14;100160.84;;;0.74;46.07
58467;BME280;44255;49.244;7.726;2023-02-11T05:31:39;100158.19;;;0.63;46.31
58467;BME280;44255;49.244;7.726;2023-02-11T05:34:05;100167.91;;;0.78;45.91
58467;BME280;44255;49.244;7.726;2023-02-11T05:36:30;100174.09;;;0.82;46.51
58467;BME280;44255;49.244;7.726;2023-02-11T05:38:55;100179.41;;;0.79;45.71
58467;BME280;44255;49.244;7.726;2023-02-11T05:41:21;100178.53;;;0.88;45.98
58467;BME280;44255;49.244;7.726;2023-02-11T05:43:47;100186.50;;;0.72;46.29
58467;BME280;44255;49.244;7.726;2023-02-11T05:46:15;100190.94;;;0.82;46.16
58467;BME280;44255;49.244;7.726;2023-02-11T05:48:40;100195.34;;;0.99;45.80
58467;BME280;44255;49.244;7.726;2023-02-11T05:51:05;100197.09;;;0.86;46.02
58467;BME280;44255;49.244;7.726;2023-02-11T05:53:31;100190.91;;;0.96;45.92
58467;BME280;44255;49.244;7.726;2023-02-11T05:55:56;100198.84;;;0.95;45.79
58467;BME280;44255;49.244;7.726;2023-02-11T05:58:21;100199.75;;;1.00;45.91
58467;BME280;44255;49.244;7.726;2023-02-11T06:00:46;100201.50;;;0.95;45.86
58467;BME280;44255;49.244;7.726;2023-02-11T06:03:12;100200.63;;;1.07;45.94
58467;BME280;44255;49.244;7.726;2023-02-11T06:05:37;100202.41;;;1.09;45.30
58467;BME280;44255;49.244;7.726;2023-02-11T06:08:02;100199.72;;;1.13;45.61
58467;BME280;44255;49.244;7.726;2023-02-11T06:10:27;100201.53;;;1.00;45.89
58467;BME280;44255;49.244;7.726;2023-02-11T06:12:53;100194.44;;;1.09;46.29
58467;BME280;44255;49.244;7.726;2023-02-11T06:15:18;100192.69;;;0.99;45.97
58467;BME280;44255;49.244;7.726;2023-02-11T06:17:43;100195.31;;;1.04;46.18
58467;BME280;44255;49.244;7.726;2023-02-11T06:20:09;100202.41;;;1.08;46.25
58467;BME280;44255;49.244;7.726;2023-02-11T06:22:35;100207.69;;;1.09;46.12
58467;BME280;44255;49.244;7.726;2023-02-11T06:25:00;100197.09;;;1.11;46.06
58467;BME280;44255;49.244;7.726;2023-02-11T06:27:25;100192.66;;;1.05;46.00
58467;BME280;44255;49.244;7.726;2023-02-11T06:29:51;100199.75;;;1.19;46.24
58467;BME280;44255;49.244;7.726;2023-02-11T06:32:19;100187.31;;;1.19;46.17
58467;BME280;44255;49.244;7.726;2023-02-11T06:34:45;100192.63;;;1.27;45.98
58467;BME280;44255;49.244;7.726;2023-02-11T06:37:10;100184.69;;;1.25;45.86
58467;BME280;44255;49.244;7.726;2023-02-11T06:39:35;100180.25;;;1.28;46.08
58467;BME280;44255;49.244;7.726;2023-02-11T06:42:01;100184.66;;;1.30;45.41
58467;BME280;44255;49.244;7.726;2023-02-11T06:44:26;100186.44;;;1.33;46.27
58467;BME280;44255;49.244;7.726;2023-02-11T06:46:51;100179.34;;;1.33;45.53
58467;BME280;44255;49.244;7.726;2023-02-11T06:49:16;100186.41;;;1.42;46.04
58467;BME280;44255;49.244;7.726;2023-02-11T06:51:41;100186.41;;;1.45;45.30
58467;BME280;44255;49.244;7.726;2023-02-11T06:54:07;100191.69;;;1.51;45.74
58467;BME280;44255;49.244;7.726;2023-02-11T06:56:33;100197.03;;;1.45;45.23
58467;BME280;44255;49.244;7.726;2023-02-11T06:58:59;100196.13;;;1.40;45.97
58467;BME280;44255;49.244;7.726;2023-02-11T07:01:24;100206.75;;;1.48;45.42
58467;BME280;44255;49.244;7.726;2023-02-11T07:03:51;100204.16;;;1.21;45.90
58467;BME280;44255;49.244;7.726;2023-02-11T07:06:17;100202.41;;;1.11;46.71
58467;BME280;44255;49.244;7.726;2023-02-11T07:08:43;100207.69;;;1.22;46.51
58467;BME280;44255;49.244;7.726;2023-02-11T07:11:22;100205.03;;;1.37;46.39
58467;BME280;44255;49.244;7.726;2023-02-11T07:13:52;100211.22;;;1.35;46.08
58467;BME280;44255;49.244;7.726;2023-02-11T07:16:18;100207.66;;;1.41;46.47
58467;BME280;44255;49.244;7.726;2023-02-11T07:18:44;100212.94;;;1.53;46.45
58467;BME280;44255;49.244;7.726;2023-02-11T07:21:15;100219.13;;;1.63;45.49
58467;BME280;44255;49.244;7.726;2023-02-11T07:23:40;100218.22;;;1.65;45.89
58467;BME280;44255;49.244;7.726;2023-02-11T07:26:08;100206.69;;;1.66;45.23
58467;BME280;44255;49.244;7.726;2023-02-11T07:28:35;100208.59;;;1.16;46.50
58467;BME280;44255;49.244;7.726;2023-02-11T07:33:32;100204.06;;;1.65;46.04
58467;BME280;44255;49.244;7.726;2023-02-11T07:36:01;100212.00;;;1.68;46.20
58467;BME280;44255;49.244;7.726;2023-02-11T07:38:27;100216.44;;;1.69;46.40
58467;BME280;44255;49.244;7.726;2023-02-11T07:40:52;100210.19;;;1.81;46.00
58467;BME280;44255;49.244;7.726;2023-02-11T07:43:18;100218.16;;;1.82;45.93
58467;BME280;44255;49.244;7.726;2023-02-11T07:45:43;100217.34;;;1.60;45.84
58467;BME280;44255;49.244;7.726;2023-02-11T07:48:08;100221.66;;;1.97;46.12
58467;BME280;44255;49.244;7.726;2023-02-11T07:50:33;100221.63;;;2.00;45.17
58467;BME280;44255;49.244;7.726;2023-02-11T07:52:59;100221.63;;;2.00;45.69
58467;BME280;44255;49.244;7.726;2023-02-11T07:55:24;100211.88;;;2.04;45.54
58467;BME280;44255;49.244;7.726;2023-02-11T07:57:49;100208.31;;;2.05;45.98
58467;BME280;44255;49.244;7.726;2023-02-11T08:00:15;100209.19;;;2.10;45.85
58467;BME280;44255;49.244;7.726;2023-02-11T08:02:41;100212.72;;;2.07;45.87
58467;BME280;44255;49.244;7.726;2023-02-11T08:05:06;100213.59;;;2.14;45.23
58467;BME280;44255;49.244;7.726;2023-02-11T08:07:32;100209.97;;;2.26;46.07
58467;BME280;44255;49.244;7.726;2023-02-11T08:09:57;100214.41;;;2.25;46.05
58467;BME280;44255;49.244;7.726;2023-02-11T08:12:22;100206.47;;;2.21;45.52
58467;BME280;44255;49.244;7.726;2023-02-11T08:14:47;100205.56;;;2.28;45.53
58467;BME280;44255;49.244;7.726;2023-02-11T08:17:13;100217.06;;;2.24;46.28
58467;BME280;44255;49.244;7.726;2023-02-11T08:19:38;100217.06;;;2.24;45.82
58467;BME280;44255;49.244;7.726;2023-02-11T08:22:03;100214.47;;;2.18;46.21
58467;BME280;44255;49.244;7.726;2023-02-11T08:24:28;100198.38;;;2.43;45.16
58467;BME280;44255;49.244;7.726;2023-02-11T08:26:54;100201.94;;;2.45;45.54
58467;BME280;44255;49.244;7.726;2023-02-11T08:29:19;100197.47;;;2.45;45.55
58467;BME280;44255;49.244;7.726;2023-02-11T08:31:45;100192.16;;;2.47;45.23
58467;BME280;44255;49.244;7.726;2023-02-11T08:34:12;100191.53;;;1.92;46.92
58467;BME280;44255;49.244;7.726;2023-02-11T08:36:39;100197.47;;;2.45;45.69
58467;BME280;44255;49.244;7.726;2023-02-11T08:39:08;100199.19;;;2.56;46.23
58467;BME280;44255;49.244;7.726;2023-02-11T08:41:35;100206.25;;;2.58;45.76
58467;BME280;44255;49.244;7.726;2023-02-11T08:44:01;100207.94;;;2.72;45.58
58467;BME280;44255;49.244;7.726;2023-02-11T08:46:26;100212.34;;;2.79;45.64
58467;BME280;44255;49.244;7.726;2023-02-11T08:48:52;100215.88;;;2.78;45.99
58467;BME280;44255;49.244;7.726;2023-02-11T08:51:35;100221.09;;;2.92;45.51
58467;BME280;44255;49.244;7.726;2023-02-11T08:54:00;100221.97;;;2.92;45.10
58467;BME280;44255;49.244;7.726;2023-02-11T08:56:26;100224.59;;;2.97;45.70
58467;BME280;44255;49.244;7.726;2023-02-11T08:58:52;100229.94;;;2.99;45.15
58467;BME280;44255;49.244;7.726;2023-02-11T09:01:20;100231.63;;;3.07;45.54
58467;BME280;44255;49.244;7.726;2023-02-11T09:03:46;100240.47;;;3.08;45.88
58467;BME280;44255;49.244;7.726;2023-02-11T09:06:12;100232.81;;;2.66;47.12
58467;BME280;44255;49.244;7.726;2023-02-11T09:08:42;100236.88;;;3.15;45.75
58467;BME280;44255;49.244;7.726;2023-02-11T09:11:09;100233.19;;;3.32;45.22
58467;BME280;44255;49.244;7.726;2023-02-11T09:13:36;100239.22;;;3.46;45.19
58467;BME280;44255;49.244;7.726;2023-02-11T09:16:03;100238.28;;;3.53;45.24
58467;BME280;44255;49.244;7.726;2023-02-11T09:18:29;100242.72;;;3.55;45.08
58467;BME280;44255;49.244;7.726;2023-02-11T09:21:05;100248.75;;;3.72;44.55
58467;BME280;44255;49.244;7.726;2023-02-11T09:23:31;100241.66;;;3.71;45.05
58467;BME280;44255;49.244;7.726;2023-02-11T09:26:07;100241.66;;;3.73;45.15
58467;BME280;44255;49.244;7.726;2023-02-11T09:28:33;100226.81;;;3.45;45.86
58467;BME280;44255;49.244;7.726;2023-02-11T09:31:04;100227.03;;;3.25;46.68
58467;BME280;44255;49.244;7.726;2023-02-11T09:33:29;100228.13;;;3.01;47.41
58467;BME280;44255;49.244;7.726;2023-02-11T09:35:54;100226.69;;;3.58;45.65
58467;BME280;44255;49.244;7.726;2023-02-11T09:38:19;100217.38;;;3.10;45.86
58467;BME280;44255;49.244;7.726;2023-02-11T09:40:46;100231.75;;;2.90;45.81
58467;BME280;44255;49.244;7.726;2023-02-11T09:43:32;100232.31;;;3.28;45.09
58467;BME280;44255;49.244;7.726;2023-02-11T09:46:00;100231.94;;;3.64;44.12
58467;BME280;44255;49.244;7.726;2023-02-11T09:48:26;100224.09;;;3.50;43.85
58467;BME280;44255;49.244;7.726;2023-02-11T09:51:00;100228.31;;;3.70;44.02
58467;BME280;44255;49.244;7.726;2023-02-11T09:53:30;100230.75;;;3.04;45.01
58467;BME280;44255;49.244;7.726;2023-02-11T09:56:00;100234.94;;;3.30;44.63
58467;BME280;44255;49.244;7.726;2023-02-11T10:06:25;100235.25;;;2.95;45.26
58467;BME280;44255;49.244;7.726;2023-02-11T10:12:00;100237.78;;;3.97;44.25
58467;BME280;44255;49.244;7.726;2023-02-11T10:22:32;100236.84;;;3.18;45.73
58467;BME280;44255;49.244;7.726;2023-02-11T10:25:11;100230.66;;;3.16;45.63
58467;BME280;44255;49.244;7.726;2023-02-11T10:27:40;100215.00;;;4.43;43.54
58467;BME280;44255;49.244;7.726;2023-02-11T10:30:09;100213.75;;;4.68;42.67
58467;BME280;44255;49.244;7.726;2023-02-11T10:32:45;100220.91;;;3.97;44.57
58467;BME280;44255;49.244;7.726;2023-02-11T10:35:18;100232.31;;;3.27;46.14
58467;BME280;44255;49.244;7.726;2023-02-11T10:37:45;100225.22;;;4.10;44.10
58467;BME280;44255;49.244;7.726;2023-02-11T10:40:16;100233.75;;;3.65;45.25
58467;BME280;44255;49.244;7.726;2023-02-11T10:42:47;100223.47;;;4.07;44.92
58467;BME280;44255;49.244;7.726;2023-02-11T10:45:21;100226.00;;;4.18;43.94
58467;BME280;44255;49.244;7.726;2023-02-11T10:47:47;100233.47;;;3.87;45.06
58467;BME280;44255;49.244;7.726;2023-02-11T10:50:27;100221.09;;;4.51;43.67
58467;BME280;44255;49.244;7.726;2023-02-11T10:53:10;100215.63;;;3.93;45.14
58467;BME280;44255;49.244;7.726;2023-02-11T10:55:36;100209.59;;;4.46;44.57
58467;BME280;44255;49.244;7.726;2023-02-11T10:58:02;100208.91;;;4.90;43.97
58467;BME280;44255;49.244;7.726;2023-02-11T11:00:35;100210.91;;;4.77;43.84
58467;BME280;44255;49.244;7.726;2023-02-11T11:03:06;100217.34;;;3.98;45.08
58467;BME280;44255;49.244;7.726;2023-02-11T11:06:09;100202.59;;;4.37;44.46
58467;BME280;44255;49.244;7.726;2023-02-11T11:08:46;100204.41;;;4.92;43.56
58467;BME280;44255;49.244;7.726;2023-02-11T11:11:17;100201.31;;;4.65;44.65
58467;BME280;44255;49.244;7.726;2023-02-11T11:16:29;100199.31;;;4.78;44.42
58467;BME280;44255;49.244;7.726;2023-02-11T11:21:41;100195.13;;;5.15;43.69
58467;BME280;44255;49.244;7.726;2023-02-11T11:24:16;100199.97;;;5.46;42.70
58467;BME280;44255;49.244;7.726;2023-02-11T11:26:45;100203.41;;;5.53;42.33
58467;BME280;44255;49.244;7.726;2023-02-11T11:29:35;100195.09;;;5.16;43.24
58467;BME280;44255;49.244;7.726;2023-02-11T11:32:33;100206.88;;;4.51;43.85
58467;BME280;44255;49.244;7.726;2023-02-11T11:35:07;100202.75;;;3.53;47.29
58467;BME280;44255;49.244;7.726;2023-02-11T11:37:44;100199.63;;;3.92;46.23
58467;BME280;44255;49.244;7.726;2023-02-11T11:42:41;100195.34;;;4.46;45.60
58467;BME280;44255;49.244;7.726;2023-02-11T11:47:57;100191.81;;;5.96;42.32
58467;BME280;44255;49.244;7.726;2023-02-11T11:50:34;100196.63;;;4.78;44.52
58467;BME280;44255;49.244;7.726;2023-02-11T11:55:43;100183.06;;;5.41;43.61
58467;BME280;44255;49.244;7.726;2023-02-11T11:58:20;100189.06;;;5.05;44.15
58467;BME280;44255;49.244;7.726;2023-02-11T12:04:01;100185.94;;;5.77;42.85
58467;BME280;44255;49.244;7.726;2023-02-11T12:06:40;100181.72;;;5.65;43.81
58467;BME280;44255;49.244;7.726;2023-02-11T12:09:27;100178.84;;;5.29;44.59
58467;BME280;44255;49.244;7.726;2023-02-11T12:12:02;100176.59;;;5.54;43.94
58467;BME280;44255;49.244;7.726;2023-02-11T12:17:21;100161.88;;;5.77;43.38
58467;BME280;44255;49.244;7.726;2023-02-11T12:26:10;100178.78;;;6.59;42.17
58467;BME280;44255;49.244;7.726;2023-02-11T12:28:44;100168.47;;;6.42;42.65
58467;BME280;44255;49.244;7.726;2023-02-11T12:31:29;100170.66;;;5.84;43.38
58467;BME280;44255;49.244;7.726;2023-02-11T12:34:16;100167.88;;;6.67;42.02
58467;BME280;44255;49.244;7.726;2023-02-11T12:36:56;100167.13;;;7.33;41.27
58467;BME280;44255;49.244;7.726;2023-02-11T12:39:49;100167.69;;;6.39;42.17
58467;BME280;44255;49.244;7.726;2023-02-11T12:45:42;100138.53;;;7.95;40.18
58467;BME280;44255;49.244;7.726;2023-02-11T12:51:42;100143.41;;;7.17;41.77
58467;BME280;44255;49.244;7.726;2023-02-11T13:02:04;100150.91;;;6.68;43.58
58467;BME280;44255;49.244;7.726;2023-02-11T13:04:37;100141.81;;;7.10;42.38
58467;BME280;44255;49.244;7.726;2023-02-11T13:07:11;100141.38;;;6.56;43.42
58467;BME280;44255;49.244;7.726;2023-02-11T13:09:49;100135.13;;;6.92;42.35
58467;BME280;44255;49.244;7.726;2023-02-11T13:12:15;100137.75;;;6.19;43.95
58467;BME280;44255;49.244;7.726;2023-02-11T13:15:04;100150.50;;;6.47;43.52
58467;BME280;44255;49.244;7.726;2023-02-11T13:17:42;100152.94;;;6.58;43.52
58467;BME280;44255;49.244;7.726;2023-02-11T13:20:20;100148.63;;;7.22;42.47
58467;BME280;44255;49.244;7.726;2023-02-11T13:23:07;100145.66;;;7.00;42.30
58467;BME280;44255;49.244;7.726;2023-02-11T13:25:49;100143.47;;;7.16;42.06
58467;BME280;44255;49.244;7.726;2023-02-11T13:28:24;100131.66;;;7.85;41.03
58467;BME280;44255;49.244;7.726;2023-02-11T13:30:52;100136.97;;;6.90;42.70
58467;BME280;44255;49.244;7.726;2023-02-11T13:33:34;100134.25;;;6.91;43.04
58467;BME280;44255;49.244;7.726;2023-02-11T13:38:27;100142.41;;;6.87;42.70
58467;BME280;44255;49.244;7.726;2023-02-11T13:41:21;100149.44;;;6.92;42.69
58467;BME280;44255;49.244;7.726;2023-02-11T13:46:52;100148.84;;;6.42;43.26
58467;BME280;44255;49.244;7.726;2023-02-11T13:49:40;100155.06;;;6.42;43.62
58467;BME280;44255;49.244;7.726;2023-02-11T13:52:26;100151.22;;;6.16;44.86
58467;BME280;44255;49.244;7.726;2023-02-11T13:54:55;100160.41;;;6.44;44.03
58467;BME280;44255;49.244;7.726;2023-02-11T13:57:26;100150.44;;;7.21;42.66
58467;BME280;44255;49.244;7.726;2023-02-11T13:59:59;100142.53;;;7.50;42.30
58467;BME280;44255;49.244;7.726;2023-02-11T14:02:31;100152.22;;;6.50;44.02
58467;BME280;44255;49.244;7.726;2023-02-11T14:05:24;100156.94;;;5.57;45.98
58467;BME280;44255;49.244;7.726;2023-02-11T14:10:56;100147.78;;;6.49;43.77
58467;BME280;44255;49.244;7.726;2023-02-11T14:13:32;100141.88;;;6.71;42.93
58467;BME280;44255;49.244;7.726;2023-02-11T14:16:14;100141.63;;;7.16;42.40
58467;BME280;44255;49.244;7.726;2023-02-11T14:21:14;100150.06;;;7.35;41.85
58467;BME280;44255;49.244;7.726;2023-02-11T14:23:41;100145.19;;;6.06;44.23
58467;BME280;44255;49.244;7.726;2023-02-11T14:31:47;100132.84;;;5.99;44.63
58467;BME280;44255;49.244;7.726;2023-02-11T14:40:26;100132.41;;;6.93;43.45
58467;BME280;44255;49.244;7.726;2023-02-11T14:42:54;100129.09;;;6.84;43.62
58467;BME280;44255;49.244;7.726;2023-02-11T14:45:26;100137.63;;;6.62;44.01
58467;BME280;44255;49.244;7.726;2023-02-11T14:50:42;100141.22;;;6.62;43.65
58467;BME280;44255;49.244;7.726;2023-02-11T14:53:15;100133.56;;;7.18;42.97
58467;BME280;44255;49.244;7.726;2023-02-11T14:55:42;100137.72;;;6.95;43.56
58467;BME280;44255;49.244;7.726;2023-02-11T14:58:24;100141.69;;;6.42;44.50
58467;BME280;44255;49.244;7.726;2023-02-11T15:05:54;100141.44;;;7.56;42.33
58467;BME280;44255;49.244;7.726;2023-02-11T15:08:20;100159.09;;;7.31;42.70
58467;BME280;44255;49.244;7.726;2023-02-11T15:10:46;100166.59;;;7.52;42.27
58467;BME280;44255;49.244;7.726;2023-02-11T15:13:17;100169.69;;;7.36;42.45
58467;BME280;44255;49.244;7.726;2023-02-11T15:15:44;100163.47;;;7.35;42.65
58467;BME280;44255;49.244;7.726;2023-02-11T15:18:16;100158.25;;;7.62;42.22
58467;BME280;44255;49.244;7.726;2023-02-11T15:20:46;100162.66;;;7.65;42.39
58467;BME280;44255;49.244;7.726;2023-02-11T15:23:19;100167.81;;;7.71;42.14
58467;BME280;44255;49.244;7.726;2023-02-11T15:25:46;100179.69;;;7.62;42.47
58467;BME280;44255;49.244;7.726;2023-02-11T15:28:26;100181.69;;;7.56;42.44
58467;BME280;44255;49.244;7.726;2023-02-11T15:30:57;100182.41;;;7.29;42.74
58467;BME280;44255;49.244;7.726;2023-02-11T15:33:23;100192.16;;;7.33;43.23
58467;BME280;44255;49.244;7.726;2023-02-11T15:35:49;100187.09;;;7.54;42.89
58467;BME280;44255;49.244;7.726;2023-02-11T15:38:14;100187.72;;;7.64;42.71
58467;BME280;44255;49.244;7.726;2023-02-11T15:40:54;100191.47;;;7.57;42.83
58467;BME280;44255;49.244;7.726;2023-02-11T15:43:20;100186.06;;;7.60;42.73
58467;BME280;44255;49.244;7.726;2023-02-11T15:46:00;100188.91;;;7.54;42.84
58467;BME280;44255;49.244;7.726;2023-02-11T15:48:30;100170.69;;;7.65;42.86
58467;BME280;44255;49.244;7.726;2023-02-11T15:51:01;100183.44;;;7.57;43.29
58467;BME280;44255;49.244;7.726;2023-02-11T15:53:39;100181.53;;;7.62;43.09
58467;BME280;44255;49.244;7.726;2023-02-11T15:56:19;100186.97;;;7.59;42.96
58467;BME280;44255;49.244;7.726;2023-02-11T15:58:48;100190.06;;;7.10;43.90
58467;BME280;44255;49.244;7.726;2023-02-11T16:01:15;100180.31;;;7.06;43.85
58467;BME280;44255;49.244;7.726;2023-02-11T16:03:42;100189.19;;;7.43;43.34
58467;BME280;44255;49.244;7.726;2023-02-11T16:06:15;100179.00;;;7.56;43.14
58467;BME280;44255;49.244;7.726;2023-02-11T16:08:41;100180.28;;;7.09;43.83
58467;BME280;44255;49.244;7.726;2023-02-11T16:11:23;100184.41;;;7.21;43.58
58467;BME280;44255;49.244;7.726;2023-02-11T16:13:49;100184.34;;;7.56;43.02
58467;BME280;44255;49.244;7.726;2023-02-11T16:16:30;100188.66;;;7.30;43.70
58467;BME280;44255;49.244;7.726;2023-02-11T16:18:59;100188.16;;;7.48;43.32
58467;BME280;44255;49.244;7.726;2023-02-11T16:21:32;100191.63;;;7.52;43.14
58467;BME280;44255;49.244;7.726;2023-02-11T16:23:59;100193.59;;;7.45;43.27
58467;BME280;44255;49.244;7.726;2023-02-11T16:26:33;100197.88;;;7.53;43.13
58467;BME280;44255;49.244;7.726;2023-02-11T16:29:14;100211.47;;;7.46;43.19
58467;BME280;44255;49.244;7.726;2023-02-11T16:31:43;100208.09;;;7.38;43.30
58467;BME280;44255;49.244;7.726;2023-02-11T16:34:22;100204.44;;;7.42;43.33
58467;BME280;44255;49.244;7.726;2023-02-11T16:36:49;100208.25;;;7.33;43.46
58467;BME280;44255;49.244;7.726;2023-02-11T16:39:16;100208.91;;;7.40;43.20
58467;BME280;44255;49.244;7.726;2023-02-11T16:41:42;100210.13;;;7.30;43.34
58467;BME280;44255;49.244;7.726;2023-02-11T16:44:07;100211.97;;;7.28;43.36
58467;BME280;44255;49.244;7.726;2023-02-11T16:46:33;100210.63;;;7.10;43.47
58467;BME280;44255;49.244;7.726;2023-02-11T16:51:37;100209.38;;;7.23;43.38
58467;BME280;44255;49.244;7.726;2023-02-11T16:54:03;100209.03;;;6.63;44.59
58467;BME280;44255;49.244;7.726;2023-02-11T16:56:28;100218.84;;;7.02;43.64
58467;BME280;44255;49.244;7.726;2023-02-11T16:58:53;100221.47;;;7.05;43.95
58467;BME280;44255;49.244;7.726;2023-02-11T17:01:19;100225.91;;;7.06;44.21
58467;BME280;44255;49.244;7.726;2023-02-11T17:03:44;100220.91;;;6.92;44.20
58467;BME280;44255;49.244;7.726;2023-02-11T17:06:10;100223.50;;;6.95;44.10
58467;BME280;44255;49.244;7.726;2023-02-11T17:08:36;100228.81;;;6.97;43.72
58467;BME280;44255;49.244;7.726;2023-02-11T17:11:02;100218.28;;;6.90;43.73
58467;BME280;44255;49.244;7.726;2023-02-11T17:13:27;100216.13;;;6.65;44.30
58467;BME280;44255;49.244;7.726;2023-02-11T17:15:53;100217.66;;;6.77;43.89
58467;BME280;44255;49.244;7.726;2023-02-11T17:18:18;100213.28;;;6.75;44.15
58467;BME280;44255;49.244;7.726;2023-02-11T17:20:43;100219.38;;;6.82;44.27
58467;BME280;44255;49.244;7.726;2023-02-11T17:23:09;100219.47;;;6.77;44.20
58467;BME280;44255;49.244;7.726;2023-02-11T17:25:34;100222.94;;;6.82;44.32
58467;BME280;44255;49.244;7.726;2023-02-11T17:28:05;100221.06;;;6.86;44.78
58467;BME280;44255;49.244;7.726;2023-02-11T17:30:30;100220.25;;;6.82;44.74
58467;BME280;44255;49.244;7.726;2023-02-11T17:32:56;100228.28;;;6.82;44.92
58467;BME280;44255;49.244;7.726;2023-02-11T17:35:21;100223.69;;;6.87;44.89
58467;BME280;44255;49.244;7.726;2023-02-11T17:37:46;100225.63;;;6.81;44.99
58467;BME280;44255;49.244;7.726;2023-02-11T17:40:12;100239.81;;;6.86;45.02
58467;BME280;44255;49.244;7.726;2023-02-11T17:42:38;100242.50;;;6.86;45.09
58467;BME280;44255;49.244;7.726;2023-02-11T17:45:03;100239.94;;;6.79;44.82
58467;BME280;44255;49.244;7.726;2023-02-11T17:47:29;100235.63;;;6.74;45.34
58467;BME280;44255;49.244;7.726;2023-02-11T17:49:54;100236.31;;;6.43;46.06
58467;BME280;44255;49.244;7.726;2023-02-11T17:52:19;100235.81;;;6.64;45.53
58467;BME280;44255;49.244;7.726;2023-02-11T17:54:45;100233.16;;;6.63;45.24
58467;BME280;44255;49.244;7.726;2023-02-11T17:57:11;100240.47;;;6.56;45.88
58467;BME280;44255;49.244;7.726;2023-02-11T17:59:37;100240.31;;;6.62;46.00
58467;BME280;44255;49.244;7.726;2023-02-11T18:02:03;100240.47;;;6.56;46.09
58467;BME280;44255;49.244;7.726;2023-02-11T18:04:29;100231.44;;;6.60;45.58
58467;BME280;44255;49.244;7.726;2023-02-11T18:06:55;100234.13;;;6.60;45.71
58467;BME280;44255;49.244;7.726;2023-02-11T18:09:21;100248.53;;;6.56;45.71
58467;BME280;44255;49.244;7.726;2023-02-11T18:11:47;100244.06;;;6.55;46.19
58467;BME280;44255;49.244;7.726;2023-02-11T18:14:14;100240.47;;;6.56;45.86
58467;BME280;44255;49.244;7.726;2023-02-11T18:16:39;100245.34;;;6.39;46.21
58467;BME280;44255;49.244;7.726;2023-02-11T18:19:08;100241.69;;;6.41;46.01
58467;BME280;44255;49.244;7.726;2023-02-11T18:21:33;100246.78;;;6.54;46.08
58467;BME280;44255;49.244;7.726;2023-02-11T18:23:59;100243.28;;;6.50;46.01
58467;BME280;44255;49.244;7.726;2023-02-11T18:26:25;100253.91;;;6.53;45.40
58467;BME280;44255;49.244;7.726;2023-02-11T18:28:52;100257.84;;;6.36;45.92
58467;BME280;44255;49.244;7.726;2023-02-11T18:31:18;100257.66;;;6.47;46.05
58467;BME280;44255;49.244;7.726;2023-02-11T18:33:43;100256.81;;;6.44;45.53
58467;BME280;44255;49.244;7.726;2023-02-11T18:36:11;100255.81;;;6.48;45.95
58467;BME280;44255;49.244;7.726;2023-02-11T18:38:37;100262.13;;;6.45;45.89
58467;BME280;44255;49.244;7.726;2023-02-11T18:41:03;100256.81;;;6.44;46.12
58467;BME280;44255;49.244;7.726;2023-02-11T18:43:29;100256.00;;;6.40;45.49
58467;BME280;44255;49.244;7.726;2023-02-11T18:45:59;100246.09;;;6.44;45.82
58467;BME280;44255;49.244;7.726;2023-02-11T18:48:25;100252.63;;;6.32;45.81
58467;BME280;44255;49.244;7.726;2023-02-11T18:50:53;100256.09;;;6.35;45.48
58467;BME280;44255;49.244;7.726;2023-02-11T18:53:19;100261.19;;;6.48;45.25
58467;BME280;44255;49.244;7.726;2023-02-11T18:55:45;100265.50;;;6.13;46.56
58467;BME280;44255;49.244;7.726;2023-02-11T18:58:10;100261.34;;;6.40;45.55
58467;BME280;44255;49.244;7.726;2023-02-11T19:00:38;100260.59;;;6.33;46.44
58467;BME280;44255;49.244;7.726;2023-02-11T19:03:04;100265.22;;;6.27;46.11
58467;BME280;44255;49.244;7.726;2023-02-11T19:05:29;100269.78;;;6.23;46.70
58467;BME280;44255;49.244;7.726;2023-02-11T19:07:58;100274.22;;;6.22;46.56
58467;BME280;44255;49.244;7.726;2023-02-11T19:10:24;100267.19;;;6.18;46.24
58467;BME280;44255;49.244;7.726;2023-02-11T19:12:56;100267.19;;;6.17;46.69
58467;BME280;44255;49.244;7.726;2023-02-11T19:15:23;100260.94;;;6.18;46.68